Главная страница
METAR-TAF:

METAR-TAF

Аэропорты :

Стокгольм-Арланда, Швеция

широта: 59-39N, долгота: 017-57E, высота над уровнем моря: 38 м

Текущие метеонаблюдения

Эта сводка был подготовлена 24 минут назад, в 20:50 UTC
Ветер 3 Узел от юго-юго-восточный
Температура 4°C
Влажность 93%
Давление 1023 hPa
Видимость 10 км и более
Нет облачности ниже 1500 м, и нет кучево-дождевой облачности

METAR: ESSA 192050Z 16003KT CAVOK 04/03 Q1023 NOSIG

Время: 23:14 (21:14 UTC)

Прогноз

Эта сводка был подготовлена 3 часа и 44 минут назад, в 17:30 UTC
Прогноз действительный с 19-го 18 UTC до 20-го 18 UTC
Ветер 2 Узел переменных направлений
Видимость 10 км и более
Нет облачности ниже 1500 м, и нет кучево-дождевой облачности

TAF: ESSA 191730Z 1918/2018 VRB02KT CAVOK

Метеонаблюдения и прогнозы для более 4000 аэропортов (сводки METAR и TAF).

Имеющиеся станции представлены на карте желтыми и красными точками.

Чтобы увидеть название станции, наведите на нее мышь.

Затем щелкните, чтобы увидеть метеонаблюдения и метеопрогнозы.

Управление картой: чтобы увеличить масштаб, щелкните зеленые кнопки с черным крестиком; чтобы уменьшить масштаб, щелкните зеленую кнопку с тире; для просмотра соседних карт щелкайте зеленые стрелки.


METAR-TAF: